Flight Track Log - Related Links

Times and Time Zones

All times are in EDT time to prevent confusion due to time zone crossing. See the SWA2131 flight status page for this flight to view local times or setup timezone preferences in your user account.


Time Position Orientation Groundspeed Altitude Reporting Facility
EDT Latitude Longitude Course Direction KTS MPH feet Rate Location/Type
Sat 08:13:19 AM 28.4333 -81.3000 360° North 149 171 600  Level Orlando TRACON
Sat 08:14:13 AM 28.4667 -81.3000 360° North 198 228 2,100 2,105 Climbing Orlando TRACON
Sat 08:15:13 AM 28.5500 -81.3167 350° North 242 278 4,600 2,450 Climbing Orlando TRACON
Sat 08:16:13 AM 28.5667 -81.3833 286° West 262 302 7,000 2,762 Climbing Orlando TRACON
Sat 08:17:19 AM 28.5667 -81.4833 270° West 270 311 10,400 2,434 Climbing Orlando TRACON
Sat 08:19:08 AM 28.5550 -81.6542 266° West 332 382 14,100 2,500 Climbing Jacksonville Center
Sat 08:20:07 AM 28.5519 -81.7675 268° West 349 402 17,400 2,950 Climbing Jacksonville Center
Sat 08:21:08 AM 28.5467 -81.8881 267° West 372 428 20,000 2,628 Climbing Jacksonville Center
Sat 08:22:08 AM 28.5372 -82.0042 265° West 378 435 22,700 2,850 Climbing Jacksonville Center
Sat 08:23:08 AM 28.5025 -82.1367 253° West 383 441 25,700 2,600 Climbing Jacksonville Center
Sat 08:24:08 AM 28.4822 -82.2550 259° West 389 448 27,900 2,000 Climbing Jacksonville Center
Sat 08:25:08 AM 28.4661 -82.3778 262° West 395 455 29,700 2,050 Climbing Jacksonville Center
Sat 08:26:08 AM 28.5375 -82.4789 309° West 365 420 32,000 2,100 Climbing Jacksonville Center
Sat 08:27:08 AM 28.6606 -82.5211 343° North 383 441 33,900 1,664 Climbing Jacksonville Center
Sat 08:28:07 AM 28.7672 -82.5561 344° North 394 453 35,300 1,600 Climbing Jacksonville Center
Sat 08:29:08 AM 28.8842 -82.6008 341° North 423 487 37,100 1,339 Climbing Jacksonville Center
Sat 08:30:08 AM 28.9992 -82.6433 342° North 430 495 38,000 454 Climbing Jacksonville Center
Sat 08:31:07 AM 29.1097 -82.6833 342° North 424 488 38,000  Level Jacksonville Center
Sat 08:32:08 AM 29.2206 -82.7236 342° North 424 488 38,000 -50 Level Jacksonville Center
Sat 08:33:07 AM 29.3311 -82.7664 341° North 424 488 37,900  Descending Jacksonville Center
Sat 08:34:07 AM 29.4419 -82.8067 342° North 424 488 38,000 50 Climbing Jacksonville Center
Sat 08:35:07 AM 29.5589 -82.8544 340° North 429 494 38,000 149 Level Jacksonville Center
Sat 08:36:08 AM 29.6736 -82.8950 343° North 429 494 38,300 992 Climbing Jacksonville Center
Sat 08:37:08 AM 29.7800 -82.9381 341° North 424 488 40,000 850 Climbing Jacksonville Center
Sat 08:38:08 AM 29.8886 -82.9764 343° North 419 482 40,000  Level Jacksonville Center
Sat 08:39:08 AM 29.9972 -83.0197 341° North 419 482 40,000  Level Jacksonville Center
Sat 08:40:08 AM 30.1203 -83.0606 344° North 419 482 40,000  Level Jacksonville Center
Sat 08:41:08 AM 30.2308 -83.1017 342° North 419 482 40,000  Level Jacksonville Center
Sat 08:42:08 AM 30.3414 -83.1428 342° North 419 482 40,000  Level Jacksonville Center
Sat 08:43:08 AM 30.4542 -83.1867 341° North 419 482 40,000  Level Jacksonville Center
Sat 08:44:08 AM 30.5519 -83.2472 332° Northwest 414 476 40,000  Level Jacksonville Center
Sat 08:45:08 AM 30.6500 -83.3175 328° Northwest 409 471 40,000  Level Jacksonville Center
Sat 08:46:08 AM 30.7478 -83.3881 328° Northwest 409 471 40,000  Level Jacksonville Center
Sat 08:47:08 AM 30.8414 -83.4586 327° Northwest 409 471 40,000  Level Jacksonville Center
Sat 08:48:08 AM 30.9414 -83.5319 328° Northwest 414 476 40,000  Level Jacksonville Center
Sat 08:49:08 AM 31.0392 -83.6031 328° Northwest 414 476 40,000  Level Jacksonville Center
Sat 08:50:07 AM 31.1389 -83.6767 328° Northwest 414 476 40,000  Level Jacksonville Center
Sat 08:51:07 AM 31.2386 -83.7528 327° Northwest 414 476 40,000  Level Jacksonville Center
Sat 08:52:08 AM 31.3406 -83.8242 329° Northwest 414 476 40,000  Level Jacksonville Center
Sat 08:53:08 AM 31.4358 -83.8983 326° Northwest 414 476 40,000  Level Jacksonville Center
Sat 08:55:29 AM 31.7006 -84.0047 341° North 436 502 40,000  Level Atlanta Center
Sat 08:56:29 AM 31.8281 -84.0292 351° North 453 521 40,000  Level Atlanta Center
Sat 08:57:29 AM 31.9658 -84.0583 350° North 453 521 40,000  Level Atlanta Center
Sat 08:58:29 AM 32.0931 -84.0878 349° North 458 527 40,000  Level Atlanta Center
Sat 08:59:29 AM 32.2203 -84.1150 350° North 458 527 40,000  Level Atlanta Center
Sat 09:00:29 AM 32.3456 -84.1422 350° North 458 527 40,000  Level Atlanta Center
Sat 09:01:29 AM 32.4750 -84.1719 349° North 463 533 40,000  Level Atlanta Center
Sat 09:02:29 AM 32.6044 -84.2017 349° North 469 540 40,000  Level Atlanta Center
Sat 09:03:29 AM 32.7317 -84.2339 348° North 469 540 40,000  Level Atlanta Center
Sat 09:04:29 AM 32.8444 -84.2564 350° North 463 533 40,000  Level Atlanta Center
Sat 09:05:29 AM 32.9758 -84.2889 348° North 475 547 40,000  Level Atlanta Center
Sat 09:06:29 AM 33.1178 -84.3192 350° North 475 547 40,000  Level Atlanta Center
Sat 09:07:29 AM 33.2511 -84.3494 349° North 470 541 40,000  Level Atlanta Center
Sat 09:08:29 AM 33.3783 -84.3822 348° North 470 541 40,000  Level Atlanta Center
Sat 09:09:29 AM 33.5078 -84.4100 350° North 470 541 40,000  Level Atlanta Center
Sat 09:10:29 AM 33.6225 -84.4381 348° North 470 541 40,000  Level Atlanta Center
Sat 09:11:29 AM 33.7433 -84.4883 341° North 458 527 40,000  Level Atlanta Center
Sat 09:12:29 AM 33.8789 -84.5492 340° North 458 527 40,000  Level Atlanta Center
Sat 09:13:29 AM 33.9997 -84.6025 340° North 463 533 40,000  Level Atlanta Center
Sat 09:14:29 AM 34.1183 -84.6561 339° North 463 533 40,000  Level Atlanta Center
Sat 09:15:29 AM 34.2411 -84.7072 341° North 465 535 40,000 -450 Level Atlanta Center
Sat 09:16:29 AM 34.3472 -84.7811 330° Northwest 450 518 39,100 -900 Descending Atlanta Center
Sat 09:17:29 AM 34.4511 -84.8600 328° Northwest 439 505 38,200 -950 Descending Atlanta Center
Sat 09:18:29 AM 34.5547 -84.9417 327° Northwest 445 512 37,200 -1,000 Descending Atlanta Center
Sat 09:19:29 AM 34.6586 -85.0186 329° Northwest 438 504 36,200 -950 Descending Atlanta Center
Sat 09:20:29 AM 34.7581 -85.0981 327° Northwest 432 497 35,300 -950 Descending Atlanta Center
Sat 09:21:29 AM 34.8597 -85.1753 328° Northwest 432 497 34,300 -1,050 Descending Atlanta Center
Sat 09:22:29 AM 34.9592 -85.2553 327° Northwest 432 497 33,200 -1,385 Descending Atlanta Center
Sat 09:24:05 AM 35.1117 -85.3717 328° Northwest 418 481 30,700 -1,731 Descending Memphis Center
Sat 09:25:05 AM 35.1942 -85.4533 321° Northwest 399 459 28,700 -2,000 Descending Memphis Center
Sat 09:26:05 AM 35.2622 -85.5408 314° West 375 432 26,700 -1,950 Descending Memphis Center
Sat 09:27:05 AM 35.3300 -85.6258 314° West 362 417 24,800 -1,850 Descending Memphis Center
Sat 09:28:05 AM 35.3936 -85.7064 314° West 345 397 23,000 -2,200 Descending Memphis Center
Sat 09:29:05 AM 35.4572 -85.7894 313° West 340 391 20,400 -2,600 Descending Memphis Center
Sat 09:30:05 AM 35.5228 -85.8725 314° West 340 391 17,800 -2,200 Descending Memphis Center
Sat 09:31:05 AM 35.5864 -85.9558 313° West 340 391 16,000 -1,400 Descending Memphis Center
Sat 09:32:05 AM 35.6389 -86.0272 312° West 322 371 15,000 -1,050 Descending Memphis Center
Sat 09:33:05 AM 35.6981 -86.1083 312° West 305 351 13,900 -1,100 Descending Memphis Center
Sat 09:34:05 AM 35.7525 -86.1797 313° West 299 344 12,800 -1,300 Descending Memphis Center
Sat 09:35:05 AM 35.8047 -86.2489 313° West 286 329 11,300 -1,350 Descending Memphis Center
Sat 09:36:05 AM 35.8569 -86.3153 314° West 279 321 10,100 -1,050 Descending Memphis Center
Sat 09:37:05 AM 35.9006 -86.3747 312° West 260 299 9,200 -1,050 Descending Memphis Center
Sat 09:38:05 AM 35.9442 -86.4292 315° West 233 268 8,000 -1,150 Descending Memphis Center
Sat 09:39:05 AM 35.9878 -86.4886 312° West 228 262 6,900 -950 Descending Memphis Center
Sat 09:40:05 AM 36.0311 -86.5431 315° West 223 257 6,100 -750 Descending Memphis Center
Sat 09:41:05 AM 36.0778 -86.5717 334° Northwest 212 244 5,400 -900 Descending Memphis Center
Sat 09:42:05 AM 36.1333 -86.5483 19° North 194 223 4,300 -950 Descending Memphis Center
Sat 09:43:05 AM 36.1789 -86.5361 12° North 194 223 3,500 -1,100 Descending Memphis Center
Sat 09:44:05 AM 36.1969 -86.5842 295° West 137 158 2,100 -830 Descending Memphis Center
Sat 09:45:44 AM 36.1667 -86.6500 240° Southwest 141 162 1,300 -485 Descending Nashville TRACON

Login

Don't have an account? Register now (free) for customized features, flight alerts, and more!